createdAt,value
2024-03-04T00:03:30.015Z,98495.44
2024-03-04T00:08:33.129Z,98555.50
2024-03-04T00:13:34.743Z,98424.44
2024-03-04T00:18:36.967Z,98583.19
2024-03-04T00:23:38.549Z,98494.94
2024-03-04T00:28:40.255Z,98521.38
2024-03-04T00:33:41.950Z,98622.28
2024-03-04T00:38:43.698Z,98673.44
2024-03-04T00:43:45.279Z,98537.78
2024-03-04T00:48:48.044Z,98566.72
2024-03-04T00:53:49.680Z,98591.66
2024-03-04T00:58:51.310Z,98772.25
2024-03-04T01:03:52.912Z,98613.78
2024-03-04T01:08:55.332Z,98719.53
2024-03-04T01:13:56.928Z,98687.19
2024-03-04T01:18:59.444Z,98652.13
2024-03-04T01:24:01.146Z,98620.28
2024-03-04T01:29:04.273Z,98634.84
2024-03-04T01:34:05.949Z,98764.16
2024-03-04T01:39:08.958Z,98717.34
2024-03-04T01:44:12.315Z,98723.16
2024-03-04T01:49:14.440Z,98726.00
2024-03-04T01:54:16.318Z,98828.44
2024-03-04T01:59:19.468Z,98794.00
2024-03-04T02:04:21.738Z,98717.66
2024-03-04T02:09:27.419Z,98690.56
2024-03-04T02:14:29.206Z,98697.66
2024-03-04T02:19:32.673Z,98856.28
2024-03-04T02:24:34.504Z,98718.56
2024-03-04T02:29:36.135Z,98853.31
2024-03-04T02:34:39.376Z,98719.31
2024-03-04T02:39:41.979Z,98806.56
2024-03-04T02:44:43.635Z,98836.03
2024-03-04T02:49:45.333Z,98816.16
2024-03-04T02:54:46.939Z,98854.06
2024-03-04T02:59:48.601Z,98785.94
2024-03-04T03:04:50.240Z,98768.63
2024-03-04T03:09:51.834Z,98806.34
2024-03-04T03:14:53.435Z,98758.59
2024-03-04T03:19:55.064Z,98806.88
2024-03-04T03:24:56.648Z,98842.28
2024-03-04T03:29:58.260Z,98854.06
2024-03-04T03:34:59.862Z,98838.78
2024-03-04T03:40:02.271Z,98841.88
2024-03-04T03:45:04.354Z,98880.41
2024-03-04T03:50:06.990Z,98872.03
2024-03-04T03:55:08.716Z,98838.59
2024-03-04T04:00:11.804Z,98816.75
2024-03-04T04:05:13.411Z,98863.19
2024-03-04T04:10:18.310Z,98956.41
2024-03-04T04:15:20.009Z,98911.72
2024-03-04T04:20:21.598Z,98880.47
2024-03-04T04:25:23.224Z,98835.16
2024-03-04T04:30:24.854Z,98834.47
2024-03-04T04:35:26.503Z,98949.19
2024-03-04T04:40:28.173Z,98853.06
2024-03-04T04:45:29.883Z,99010.91
2024-03-04T04:50:31.510Z,98883.28
2024-03-04T04:55:33.203Z,98939.66
2024-03-04T05:00:34.937Z,99036.03
2024-03-04T05:05:36.840Z,99017.38
2024-03-04T05:10:40.691Z,98906.66
2024-03-04T05:15:43.650Z,98903.41
2024-03-04T05:20:54.338Z,99034.69
2024-03-04T05:25:59.240Z,98972.84
2024-03-04T05:31:01.597Z,98959.00
2024-03-04T05:36:06.103Z,98948.09
2024-03-04T05:41:07.767Z,98936.88
2024-03-04T05:46:09.701Z,99108.63
2024-03-04T05:51:11.310Z,98947.94
2024-03-04T05:56:15.896Z,99043.00
2024-03-04T06:01:18.089Z,99029.41
2024-03-04T06:06:19.740Z,99065.16
2024-03-04T06:11:21.410Z,99061.69
2024-03-04T06:16:23.427Z,99090.31
2024-03-04T06:21:25.124Z,99076.00
2024-03-04T06:26:26.745Z,99022.53
2024-03-04T06:31:28.425Z,99106.94
2024-03-04T06:36:30.057Z,99072.56
2024-03-04T06:41:31.646Z,99113.06
2024-03-04T06:46:34.441Z,99008.91
2024-03-04T06:51:36.821Z,99088.69
2024-03-04T06:56:38.465Z,99118.19
2024-03-04T07:01:40.161Z,99082.84
2024-03-04T07:06:41.828Z,99106.19
2024-03-04T07:11:43.602Z,99044.97
2024-03-04T07:16:45.295Z,99078.00
2024-03-04T07:21:46.973Z,99095.75
2024-03-04T07:26:48.549Z,99092.22
2024-03-04T07:31:51.093Z,99128.31
2024-03-04T07:36:52.965Z,99160.09
2024-03-04T07:41:54.575Z,99164.41
2024-03-04T07:46:56.282Z,99176.44
2024-03-04T07:51:58.903Z,99097.75
2024-03-04T07:57:09.777Z,99188.75
2024-03-04T08:02:15.625Z,99154.91
2024-03-04T08:07:17.729Z,99159.63
2024-03-04T08:12:19.424Z,99210.28
2024-03-04T08:17:23.980Z,99096.06
2024-03-04T08:22:28.553Z,99224.28
2024-03-04T08:27:30.198Z,99170.53
2024-03-04T08:32:31.842Z,99193.56
2024-03-04T08:37:33.419Z,99180.53
2024-03-04T08:42:38.886Z,99126.56
2024-03-04T08:47:40.664Z,99106.06
2024-03-04T08:52:42.576Z,99130.75
2024-03-04T08:57:44.227Z,99242.38
2024-03-04T09:02:46.118Z,99121.34
2024-03-04T09:07:47.842Z,99185.16
2024-03-04T09:12:49.877Z,99211.53
2024-03-04T09:17:51.667Z,99233.88
2024-03-04T09:22:54.297Z,99124.63
2024-03-04T09:27:55.973Z,99139.78
2024-03-04T09:32:57.567Z,99160.72
2024-03-04T09:37:59.159Z,99276.94
2024-03-04T09:43:00.923Z,99205.66
2024-03-04T09:48:03.033Z,99195.69
2024-03-04T09:53:08.144Z,99165.75
2024-03-04T09:58:09.867Z,99120.16
2024-03-04T10:03:12.165Z,99085.59
2024-03-04T10:08:13.877Z,99243.19
2024-03-04T10:13:16.868Z,99104.16
2024-03-04T10:18:18.717Z,99100.19
2024-03-04T10:23:20.472Z,99147.72
2024-03-04T10:28:37.213Z,99069.84
2024-03-04T10:33:40.861Z,99163.00
2024-03-04T10:38:47.943Z,99195.75
2024-03-04T10:43:51.659Z,99119.56
2024-03-04T10:48:54.443Z,99203.25
2024-03-04T10:53:56.108Z,99226.19
2024-03-04T10:59:02.858Z,99117.94
2024-03-04T11:06:25.245Z,99142.59
2024-03-04T11:11:39.865Z,99050.81
2024-03-04T11:17:06.504Z,99124.28
2024-03-04T11:22:08.904Z,99084.25
2024-03-04T11:27:11.325Z,99239.50
2024-03-04T11:32:13.221Z,99202.13
2024-03-04T11:37:18.082Z,99232.53
2024-03-04T11:42:36.352Z,99149.13
2024-03-04T11:47:38.111Z,99127.84
2024-03-04T11:52:39.976Z,99102.91
2024-03-04T11:57:41.694Z,99227.91
2024-03-04T12:02:44.125Z,99142.88
2024-03-04T12:07:46.128Z,99190.81
2024-03-04T12:12:48.623Z,99181.56
2024-03-04T12:17:50.635Z,99261.44
2024-03-04T12:22:55.152Z,99203.84
2024-03-04T12:27:57.340Z,99268.31
2024-03-04T12:33:02.782Z,99137.84
2024-03-04T12:38:04.639Z,99161.75
2024-03-04T12:43:06.958Z,99273.22
2024-03-04T12:48:10.958Z,99193.47
2024-03-04T12:53:15.463Z,99184.78
2024-03-04T12:58:17.346Z,99201.81
2024-03-04T13:03:19.104Z,99329.16
2024-03-04T13:08:20.988Z,99200.16
2024-03-04T13:13:22.715Z,99329.56
2024-03-04T13:18:24.503Z,99348.88
2024-03-04T13:23:26.765Z,99224.16
2024-03-04T13:28:28.448Z,99217.56
2024-03-04T13:33:31.620Z,99185.22
2024-03-04T13:38:33.798Z,99255.13
2024-03-04T13:43:35.527Z,99280.91
2024-03-04T13:48:37.242Z,99288.94
2024-03-04T13:53:38.877Z,99285.59
2024-03-04T13:58:40.597Z,99253.25
2024-03-04T14:03:42.354Z,99140.44
2024-03-04T14:08:44.050Z,99181.66
2024-03-04T14:13:45.765Z,99278.44
2024-03-04T14:18:47.786Z,99220.88
2024-03-04T14:23:49.495Z,99165.97
2024-03-04T14:28:51.360Z,99198.19
2024-03-04T14:33:54.242Z,99165.31
2024-03-04T14:38:55.876Z,99282.06
2024-03-04T14:43:57.544Z,99172.84
2024-03-04T14:48:59.254Z,99230.22
2024-03-04T14:54:00.974Z,99343.94
2024-03-04T14:59:02.603Z,99361.81
2024-03-04T15:05:24.219Z,99135.53
2024-03-04T15:10:26.614Z,99113.84
2024-03-04T15:15:29.979Z,99150.56
2024-03-04T15:20:31.649Z,99195.06
2024-03-04T15:25:33.406Z,99202.91
2024-03-04T15:30:36.073Z,99096.88
2024-03-04T15:35:38.927Z,99113.00
2024-03-04T15:40:42.981Z,99174.13
2024-03-04T15:45:46.337Z,99246.94
2024-03-04T15:50:48.802Z,99293.22
2024-03-04T15:55:50.648Z,99245.88
2024-03-04T16:00:53.084Z,99302.78
2024-03-04T16:05:54.851Z,99251.66
2024-03-04T16:10:56.716Z,99167.81
2024-03-04T16:15:59.684Z,99199.19
2024-03-04T16:21:02.454Z,99239.13
2024-03-04T16:26:05.207Z,99208.94
2024-03-04T16:31:10.935Z,99163.97
2024-03-04T16:36:13.782Z,99191.41
2024-03-04T16:41:22.722Z,99223.25
2024-03-04T16:46:24.387Z,99293.00
2024-03-04T16:51:26.151Z,99340.09
2024-03-04T16:56:27.952Z,99239.00
2024-03-04T17:01:33.298Z,99224.28
2024-03-04T17:06:38.317Z,99285.63
2024-03-04T17:11:40.258Z,99338.28
2024-03-04T17:16:45.593Z,99371.13
2024-03-04T17:21:47.379Z,99300.22
2024-03-04T17:26:49.021Z,99310.03
2024-03-04T17:31:51.026Z,99320.78
2024-03-04T17:36:52.912Z,99302.97
2024-03-04T17:41:54.836Z,99294.06
2024-03-04T17:46:56.670Z,99279.41
2024-03-04T17:51:59.388Z,99288.25
2024-03-04T17:57:01.179Z,99347.56
2024-03-04T18:02:03.606Z,99333.22
2024-03-04T18:07:06.348Z,99311.34
2024-03-04T18:12:08.352Z,99276.50
2024-03-04T18:17:10.045Z,99284.25
2024-03-04T18:22:11.759Z,99474.50
2024-03-04T18:27:13.431Z,99429.38
2024-03-04T18:32:15.109Z,99238.84
2024-03-04T18:37:16.793Z,99371.13
2024-03-04T18:42:20.010Z,99299.81
2024-03-04T18:47:21.635Z,99331.59
2024-03-04T18:52:25.650Z,99357.09
2024-03-04T18:57:27.455Z,99314.91
2024-03-04T19:02:29.214Z,99321.19
2024-03-04T19:07:33.485Z,99339.09
2024-03-04T19:12:36.207Z,99353.06
2024-03-04T19:17:40.148Z,99437.19
2024-03-04T19:22:42.075Z,99410.81
2024-03-04T19:27:43.768Z,99318.00
2024-03-04T19:32:46.613Z,99450.41
2024-03-04T19:37:48.479Z,99358.06
2024-03-04T19:42:50.254Z,99439.66
2024-03-04T19:47:53.764Z,99485.69
2024-03-04T19:52:55.492Z,99319.22
2024-03-04T19:57:57.222Z,99398.19
2024-03-04T20:02:59.021Z,99388.97
2024-03-04T20:08:00.807Z,99406.03
2024-03-04T20:13:04.074Z,99396.59
2024-03-04T20:18:05.913Z,99349.19
2024-03-04T20:23:07.841Z,99487.44
2024-03-04T20:28:11.361Z,99412.97
2024-03-04T20:33:15.026Z,99372.69
2024-03-04T20:38:16.647Z,99415.56
2024-03-04T20:43:18.409Z,99498.28
2024-03-04T20:48:22.651Z,99455.91
2024-03-04T20:53:24.899Z,99389.81
2024-03-04T20:58:26.560Z,99404.91
2024-03-04T21:03:28.253Z,99475.97
2024-03-04T21:08:36.647Z,99424.25
2024-03-04T21:13:39.806Z,99426.91
2024-03-04T21:18:45.322Z,99397.25
2024-03-04T21:29:13.813Z,99450.38
2024-03-04T21:34:20.030Z,99492.03
2024-03-04T21:39:42.121Z,99413.66
2024-03-04T21:44:55.487Z,99429.19
2024-03-04T21:50:03.297Z,99434.09
2024-03-04T21:55:12.157Z,99383.72
2024-03-04T22:00:20.302Z,99436.06
2024-03-04T22:05:25.735Z,99512.28
2024-03-04T22:10:31.116Z,99481.72
2024-03-04T22:15:41.610Z,99507.44
2024-03-04T22:20:45.602Z,99562.06
2024-03-04T22:25:53.384Z,99503.22
2024-03-04T22:30:57.890Z,99423.28
2024-03-04T22:36:05.320Z,99410.72
2024-03-04T22:41:09.247Z,99440.09
2024-03-04T22:46:11.409Z,99441.25
2024-03-04T22:51:17.766Z,99426.88
2024-03-04T22:56:20.247Z,99516.31
2024-03-04T23:01:32.108Z,99483.47
2024-03-04T23:06:36.789Z,99500.50
2024-03-04T23:11:42.990Z,99427.78
2024-03-04T23:16:45.433Z,99492.00
2024-03-04T23:21:50.118Z,99484.06
2024-03-04T23:26:55.105Z,99423.84
2024-03-04T23:31:58.985Z,99488.31
2024-03-04T23:37:06.945Z,99442.28
2024-03-04T23:42:10.350Z,99418.69
2024-03-04T23:47:18.444Z,99424.25
2024-03-04T23:52:26.693Z,99407.78
2024-03-04T23:57:36.317Z,99421.16
